createdAt,value
2023-11-21T00:00:12.965Z,18.05
2023-11-21T00:02:59.376Z,17.77
2023-11-21T00:05:46.273Z,17.92
2023-11-21T00:08:32.800Z,18.38
2023-11-21T00:11:19.985Z,18.05
2023-11-21T00:14:06.446Z,19.17
2023-11-21T00:16:53.103Z,19.42
2023-11-21T00:19:39.605Z,19.10
2023-11-21T00:22:29.998Z,18.90
2023-11-21T00:25:16.956Z,17.80
2023-11-21T00:28:04.581Z,17.65
2023-11-21T00:30:51.021Z,17.27
2023-11-21T00:33:39.158Z,17.50
2023-11-21T00:36:27.120Z,17.52
2023-11-21T00:39:14.222Z,18.55
2023-11-21T00:42:00.322Z,18.35
2023-11-21T00:44:47.597Z,17.75
2023-11-21T00:47:34.448Z,18.05
2023-11-21T00:50:21.291Z,17.50
2023-11-21T00:53:08.479Z,17.38
2023-11-21T00:55:58.303Z,17.73
2023-11-21T00:58:47.710Z,16.85
2023-11-21T01:01:34.035Z,18.10
2023-11-21T01:04:20.372Z,18.25
2023-11-21T01:07:32.476Z,17.80
2023-11-21T01:10:19.022Z,17.60
2023-11-21T01:13:06.778Z,17.50
2023-11-21T01:15:52.829Z,16.50
2023-11-21T01:18:39.817Z,16.52
2023-11-21T01:21:26.761Z,17.00
2023-11-21T01:24:14.416Z,16.70
2023-11-21T01:27:00.567Z,17.08
2023-11-21T01:29:47.504Z,17.30
2023-11-21T01:32:34.049Z,16.88
2023-11-21T01:35:20.664Z,17.70
2023-11-21T01:38:09.154Z,16.92
2023-11-21T01:40:56.274Z,16.75
2023-11-21T01:43:42.787Z,16.75
2023-11-21T01:46:30.514Z,16.77
2023-11-21T01:49:16.950Z,17.77
2023-11-21T01:52:06.190Z,18.00
2023-11-21T01:54:53.059Z,17.73
2023-11-21T01:57:40.524Z,17.52
2023-11-21T02:00:29.613Z,17.80
2023-11-21T02:03:16.640Z,16.60
2023-11-21T02:06:03.054Z,16.65
2023-11-21T02:08:50.758Z,16.80
2023-11-21T02:11:37.033Z,17.52
2023-11-21T02:14:23.486Z,18.10
2023-11-21T02:17:10.022Z,17.77
2023-11-21T02:19:57.512Z,18.23
2023-11-21T02:22:45.181Z,18.10
2023-11-21T02:25:35.351Z,17.98
2023-11-21T02:28:27.437Z,17.35
2023-11-21T02:31:18.084Z,17.83
2023-11-21T02:34:06.874Z,17.55
2023-11-21T02:36:53.209Z,17.48
2023-11-21T02:39:39.526Z,18.70
2023-11-21T02:42:26.654Z,17.92
2023-11-21T02:45:15.839Z,17.83
2023-11-21T02:48:01.722Z,17.50
2023-11-21T02:50:48.342Z,17.08
2023-11-21T02:53:35.219Z,17.40
2023-11-21T02:56:21.729Z,17.20
2023-11-21T02:59:08.130Z,17.05
2023-11-21T03:01:54.793Z,17.30
2023-11-21T03:04:41.468Z,17.85
2023-11-21T03:07:27.601Z,17.50
2023-11-21T03:10:14.936Z,17.60
2023-11-21T03:13:01.118Z,17.38
2023-11-21T03:15:47.290Z,17.02
2023-11-21T03:18:33.809Z,17.20
2023-11-21T03:21:20.829Z,16.48
2023-11-21T03:24:08.757Z,16.33
2023-11-21T03:26:56.326Z,17.27
2023-11-21T03:29:42.986Z,17.30
2023-11-21T03:32:29.908Z,17.40
2023-11-21T03:35:16.157Z,17.90
2023-11-21T03:38:03.363Z,17.38
2023-11-21T03:40:50.232Z,17.20
2023-11-21T03:43:37.887Z,16.70
2023-11-21T03:46:24.963Z,17.10
2023-11-21T03:49:13.168Z,16.90
2023-11-21T03:52:01.734Z,16.88
2023-11-21T03:54:48.462Z,17.38
2023-11-21T03:57:34.271Z,16.83
2023-11-21T04:00:21.789Z,17.13
2023-11-21T04:03:08.053Z,17.52
2023-11-21T04:05:54.672Z,17.80
2023-11-21T04:08:40.530Z,17.67
2023-11-21T04:11:27.674Z,17.90
2023-11-21T04:14:14.670Z,18.05
2023-11-21T04:17:00.926Z,17.77
2023-11-21T04:19:47.686Z,17.98
2023-11-21T04:22:34.700Z,18.35
2023-11-21T04:25:21.092Z,17.70
2023-11-21T04:28:08.580Z,17.83
2023-11-21T04:30:54.767Z,17.33
2023-11-21T04:33:41.624Z,18.30
2023-11-21T04:36:28.036Z,17.20
2023-11-21T04:39:14.265Z,17.80
2023-11-21T04:42:00.286Z,17.35
2023-11-21T04:44:47.671Z,17.85
2023-11-21T04:47:34.160Z,18.00
2023-11-21T04:50:21.499Z,17.23
2023-11-21T04:53:07.552Z,18.23
2023-11-21T04:55:54.615Z,18.00
2023-11-21T04:58:41.185Z,18.45
2023-11-21T05:01:29.196Z,17.25
2023-11-21T05:04:16.023Z,17.45
2023-11-21T05:07:02.588Z,17.50
2023-11-21T05:09:48.667Z,18.10
2023-11-21T05:12:38.835Z,18.50
2023-11-21T05:15:25.237Z,17.80
2023-11-21T05:18:12.642Z,18.08
2023-11-21T05:20:59.512Z,18.92
2023-11-21T05:23:46.463Z,18.23
2023-11-21T05:26:32.804Z,17.17
2023-11-21T05:29:20.793Z,17.55
2023-11-21T05:32:07.135Z,16.95
2023-11-21T05:34:54.144Z,17.00
2023-11-21T05:37:41.143Z,16.63
2023-11-21T05:40:31.625Z,16.65
2023-11-21T05:43:17.967Z,17.33
2023-11-21T05:46:05.249Z,17.48
2023-11-21T05:48:51.776Z,18.30
2023-11-21T05:51:40.260Z,18.42
2023-11-21T05:54:27.160Z,17.90
2023-11-21T05:57:14.034Z,17.60
2023-11-21T06:00:00.689Z,17.00
2023-11-21T06:02:57.143Z,18.00
2023-11-21T06:05:43.545Z,18.85
2023-11-21T06:08:30.155Z,18.58
2023-11-21T06:11:17.617Z,17.90
2023-11-21T06:14:04.368Z,18.55
2023-11-21T06:16:52.354Z,18.63
2023-11-21T06:19:38.567Z,18.40
2023-11-21T06:22:24.812Z,18.15
2023-11-21T06:25:12.373Z,19.65
2023-11-21T06:27:58.903Z,19.00
2023-11-21T06:30:46.932Z,17.92
2023-11-21T06:33:33.595Z,18.05
2023-11-21T06:36:20.154Z,18.05
2023-11-21T06:40:22.698Z,19.00
2023-11-21T06:43:09.515Z,19.80
2023-11-21T06:45:55.764Z,18.42
2023-11-21T06:48:44.942Z,19.60
2023-11-21T06:51:31.198Z,19.63
2023-11-21T06:54:18.404Z,18.40
2023-11-21T06:57:04.926Z,19.10
2023-11-21T06:59:51.742Z,19.52
2023-11-21T07:02:37.968Z,19.85
2023-11-21T07:05:25.220Z,19.98
2023-11-21T07:08:11.765Z,19.58
2023-11-21T07:10:58.518Z,19.52
2023-11-21T07:13:44.973Z,20.17
2023-11-21T07:16:32.087Z,19.80
2023-11-21T07:19:18.179Z,20.50
2023-11-21T07:22:04.667Z,21.00
2023-11-21T07:24:53.009Z,21.23
2023-11-21T07:27:39.923Z,20.50
2023-11-21T07:30:26.109Z,21.13
2023-11-21T07:33:14.087Z,21.02
2023-11-21T07:36:00.728Z,21.23
2023-11-21T07:38:48.188Z,21.95
2023-11-21T07:41:34.776Z,22.17
2023-11-21T07:44:21.726Z,21.63
2023-11-21T07:47:08.277Z,21.10
2023-11-21T07:49:57.262Z,22.17
2023-11-21T07:52:43.710Z,21.42
2023-11-21T07:55:33.808Z,21.63
2023-11-21T07:58:20.753Z,21.45
2023-11-21T08:01:08.058Z,22.30
2023-11-21T08:03:54.166Z,22.23
2023-11-21T08:06:42.908Z,22.88
2023-11-21T08:09:29.447Z,22.02
2023-11-21T08:12:16.396Z,21.10
2023-11-21T08:15:04.460Z,20.88
2023-11-21T08:17:51.812Z,22.38
2023-11-21T08:20:39.813Z,21.08
2023-11-21T08:23:30.098Z,20.67
2023-11-21T08:26:22.923Z,20.85
2023-11-21T08:29:08.922Z,22.25
2023-11-21T08:31:55.465Z,23.17
2023-11-21T08:34:46.126Z,22.65
2023-11-21T08:37:38.442Z,23.45
2023-11-21T08:40:25.022Z,25.52
2023-11-21T08:43:13.193Z,25.92
2023-11-21T08:46:01.303Z,24.60
2023-11-21T08:48:47.560Z,25.05
2023-11-21T09:09:18.911Z,23.17
2023-11-21T09:12:06.353Z,23.73
2023-11-21T09:14:52.458Z,26.02
2023-11-21T09:17:40.127Z,25.73
2023-11-21T09:20:26.504Z,26.13
2023-11-21T09:23:13.974Z,24.83
2023-11-21T09:26:02.133Z,24.65
2023-11-21T09:28:49.576Z,24.83
2023-11-21T09:31:36.754Z,24.73
2023-11-21T09:34:23.964Z,26.40
2023-11-21T09:37:10.834Z,27.58
2023-11-21T09:39:57.891Z,25.10
2023-11-21T09:42:53.878Z,27.13
2023-11-21T09:45:41.669Z,27.95
2023-11-21T09:48:28.594Z,28.83
2023-11-21T09:51:17.484Z,27.08
2023-11-21T09:54:07.468Z,26.75
2023-11-21T09:56:54.244Z,27.98
2023-11-21T09:59:41.760Z,26.25
2023-11-21T10:02:36.433Z,26.10
2023-11-21T10:05:25.457Z,26.88
2023-11-21T10:08:14.254Z,26.25
2023-11-21T10:11:00.969Z,34.78
2023-11-21T10:13:49.388Z,26.75
2023-11-21T10:16:35.856Z,28.10
2023-11-21T10:19:22.948Z,26.60
2023-11-21T10:22:10.009Z,26.13
2023-11-21T10:24:56.707Z,25.45
2023-11-21T10:27:44.298Z,26.90
2023-11-21T10:30:38.470Z,24.90
2023-11-21T10:33:31.025Z,24.65
2023-11-21T10:36:28.564Z,25.88
2023-11-21T10:39:19.385Z,23.63
2023-11-21T10:42:10.128Z,24.30
2023-11-21T10:44:57.437Z,26.42
2023-11-21T10:47:46.038Z,30.67
2023-11-21T10:50:34.307Z,29.20
2023-11-21T10:53:23.404Z,27.08
2023-11-21T10:56:18.610Z,26.40
2023-11-21T10:59:05.369Z,25.52
2023-11-21T11:01:53.706Z,33.45
2023-11-21T11:04:42.108Z,29.70
2023-11-21T11:07:29.374Z,28.65
2023-11-21T11:10:17.127Z,29.00
2023-11-21T11:13:03.713Z,28.65
2023-11-21T11:15:52.988Z,26.30
2023-11-21T11:18:40.204Z,25.88
2023-11-21T11:21:50.813Z,29.45
2023-11-21T11:24:49.241Z,29.60
2023-11-21T11:27:49.453Z,28.25
2023-11-21T11:30:54.204Z,25.17
2023-11-21T11:33:46.902Z,32.20
2023-11-21T11:36:45.148Z,35.38
2023-11-21T11:39:37.881Z,30.30
2023-11-21T11:42:24.962Z,31.10
2023-11-21T11:45:21.324Z,37.92
2023-11-21T11:48:07.505Z,28.42
2023-11-21T11:51:10.442Z,29.40
2023-11-21T11:53:56.487Z,26.27
2023-11-21T11:56:43.374Z,27.33
2023-11-21T11:59:29.466Z,26.35
2023-11-21T12:02:16.921Z,24.77
2023-11-21T12:05:10.590Z,25.92
2023-11-21T12:07:59.224Z,25.00
2023-11-21T12:10:45.634Z,24.25
2023-11-21T12:13:33.439Z,23.77
2023-11-21T12:16:22.478Z,24.45
2023-11-21T12:19:09.022Z,24.80
2023-11-21T12:21:57.104Z,25.60
2023-11-21T12:24:44.099Z,27.95
2023-11-21T12:27:29.908Z,28.27
2023-11-21T12:30:18.977Z,32.13
2023-11-21T12:33:08.209Z,30.15
2023-11-21T12:35:55.474Z,36.13
2023-11-21T12:38:43.309Z,32.25
2023-11-21T12:41:30.748Z,35.33
2023-11-21T12:44:17.720Z,40.13
2023-11-21T12:47:05.264Z,35.30
2023-11-21T12:49:51.902Z,30.05
2023-11-21T12:52:40.991Z,25.90
2023-11-21T12:55:27.290Z,31.45
2023-11-21T12:58:14.622Z,25.55
2023-11-21T13:01:00.855Z,26.25
2023-11-21T13:03:52.784Z,31.67
2023-11-21T13:06:42.226Z,27.88
2023-11-21T13:09:29.587Z,26.83
2023-11-21T13:12:19.236Z,25.73
2023-11-21T13:15:09.082Z,22.55
2023-11-21T13:17:57.221Z,24.27
2023-11-21T13:20:44.361Z,24.65
2023-11-21T13:23:35.481Z,24.30
2023-11-21T13:26:24.205Z,27.30
2023-11-21T13:29:10.141Z,24.20
2023-11-21T13:31:57.311Z,25.15
2023-11-21T13:34:46.234Z,24.45
2023-11-21T13:37:33.949Z,23.15
2023-11-21T13:40:26.789Z,21.63
2023-11-21T13:43:15.067Z,23.27
2023-11-21T13:46:14.230Z,24.60
2023-11-21T13:49:02.264Z,25.52
2023-11-21T13:51:53.302Z,25.65
2023-11-21T13:54:40.317Z,25.10
2023-11-21T13:57:26.614Z,23.88
2023-11-21T14:00:34.118Z,23.88
2023-11-21T14:03:23.340Z,23.85
2023-11-21T14:06:15.876Z,23.70
2023-11-21T14:09:06.427Z,24.40
2023-11-21T14:11:57.829Z,24.23
2023-11-21T14:14:45.666Z,24.58
2023-11-21T14:17:32.673Z,23.45
2023-11-21T14:20:22.126Z,22.90
2023-11-21T14:23:09.641Z,23.40
2023-11-21T14:25:55.895Z,23.65
2023-11-21T14:28:43.922Z,29.02
2023-11-21T14:31:31.805Z,22.50
2023-11-21T14:34:21.616Z,22.98
2023-11-21T14:37:09.983Z,23.00
2023-11-21T14:39:56.899Z,22.83
2023-11-21T14:42:44.223Z,22.45
2023-11-21T14:45:31.552Z,22.73
2023-11-21T14:48:30.202Z,22.92
2023-11-21T14:51:17.667Z,21.83
2023-11-21T14:54:11.186Z,21.42
2023-11-21T14:56:58.176Z,21.05
2023-11-21T14:59:51.980Z,21.08
2023-11-21T15:02:50.985Z,20.20
2023-11-21T15:05:39.790Z,20.60
2023-11-21T15:08:33.909Z,23.17
2023-11-21T15:11:23.456Z,21.15
2023-11-21T15:14:11.495Z,23.23
2023-11-21T15:17:01.160Z,23.58
2023-11-21T15:19:47.340Z,27.05
2023-11-21T15:22:33.689Z,25.05
2023-11-21T15:25:20.688Z,24.88
2023-11-21T15:28:07.778Z,25.40
2023-11-21T15:30:54.738Z,22.60
2023-11-21T15:33:44.270Z,21.60
2023-11-21T15:36:31.313Z,22.55
2023-11-21T15:39:17.746Z,21.70
2023-11-21T15:42:05.666Z,21.80
2023-11-21T15:44:52.477Z,21.95
2023-11-21T15:47:39.607Z,23.02
2023-11-21T15:50:27.529Z,21.50
2023-11-21T15:53:14.197Z,22.88
2023-11-21T15:56:00.596Z,21.90
2023-11-21T15:58:50.673Z,22.20
2023-11-21T16:01:43.129Z,22.00
2023-11-21T16:04:29.917Z,22.95
2023-11-21T16:07:17.576Z,23.27
2023-11-21T16:10:09.130Z,21.98
2023-11-21T16:12:55.847Z,23.67
2023-11-21T16:15:46.127Z,22.88
2023-11-21T16:18:33.512Z,22.25
2023-11-21T16:21:21.553Z,21.45
2023-11-21T16:24:08.071Z,22.60
2023-11-21T16:26:56.199Z,22.73
2023-11-21T16:29:46.846Z,24.08
2023-11-21T16:32:35.709Z,29.45
2023-11-21T16:35:25.926Z,29.27
2023-11-21T16:38:14.695Z,24.00
2023-11-21T16:41:07.088Z,23.95
2023-11-21T16:43:53.419Z,26.30
2023-11-21T16:46:40.767Z,28.30
2023-11-21T16:49:29.968Z,26.95
2023-11-21T16:52:16.867Z,26.13
2023-11-21T16:55:04.399Z,24.83
2023-11-21T16:57:53.126Z,25.00
2023-11-21T17:00:39.961Z,23.90
2023-11-21T17:03:27.732Z,22.60
2023-11-21T17:06:15.052Z,24.13
2023-11-21T17:09:02.289Z,24.20
2023-11-21T17:11:50.653Z,24.50
2023-11-21T17:14:37.015Z,23.30
2023-11-21T17:17:24.305Z,23.35
2023-11-21T17:20:12.211Z,21.42
2023-11-21T17:22:58.941Z,33.65
2023-11-21T17:25:45.302Z,23.70
2023-11-21T17:28:32.379Z,26.17
2023-11-21T17:31:19.884Z,22.40
2023-11-21T17:34:11.336Z,24.27
2023-11-21T17:36:57.891Z,22.20
2023-11-21T17:39:46.457Z,21.88
2023-11-21T17:42:32.402Z,22.23
2023-11-21T17:45:20.803Z,23.23
2023-11-21T17:48:08.427Z,23.38
2023-11-21T17:50:55.714Z,22.95
2023-11-21T17:53:44.910Z,21.45
2023-11-21T17:56:35.399Z,22.42
2023-11-21T17:59:27.976Z,22.50
2023-11-21T18:02:14.584Z,22.55
2023-11-21T18:05:06.423Z,21.08
2023-11-21T18:07:53.832Z,20.73
2023-11-21T18:10:40.043Z,20.35
2023-11-21T18:13:27.491Z,22.17
2023-11-21T18:16:15.612Z,21.05
2023-11-21T18:19:02.117Z,20.55
2023-11-21T18:21:48.608Z,18.85
2023-11-21T18:24:48.730Z,19.33
2023-11-21T18:27:36.473Z,19.75
2023-11-21T18:30:23.056Z,19.23
2023-11-21T18:33:09.421Z,19.90
2023-11-21T18:35:56.238Z,20.73
2023-11-21T18:38:42.375Z,20.67
2023-11-21T18:41:31.711Z,20.15
2023-11-21T18:44:17.741Z,20.77
2023-11-21T18:47:05.375Z,21.00
2023-11-21T18:49:51.684Z,20.15
2023-11-21T18:52:38.705Z,20.60
2023-11-21T18:55:25.439Z,20.35
2023-11-21T18:58:12.389Z,20.85
2023-11-21T19:00:58.471Z,20.70
2023-11-21T19:03:45.646Z,19.73
2023-11-21T19:06:34.290Z,20.83
2023-11-21T19:09:20.710Z,21.10
2023-11-21T19:12:07.419Z,21.20
2023-11-21T19:14:54.120Z,20.70
2023-11-21T19:17:40.714Z,20.45
2023-11-21T19:20:27.451Z,22.20
2023-11-21T19:23:13.897Z,20.60
2023-11-21T19:26:01.506Z,21.40
2023-11-21T19:28:53.845Z,20.83
2023-11-21T19:31:50.351Z,20.98
2023-11-21T19:34:36.805Z,22.13
2023-11-21T19:37:23.874Z,21.50
2023-11-21T19:40:10.791Z,22.30
2023-11-21T19:42:58.204Z,23.67
2023-11-21T19:45:44.552Z,23.75
2023-11-21T19:48:31.998Z,25.88
2023-11-21T19:51:19.354Z,20.60
2023-11-21T19:54:07.640Z,20.38
2023-11-21T19:56:54.217Z,20.92
2023-11-21T19:59:44.592Z,21.13
2023-11-21T20:02:30.989Z,20.73
2023-11-21T20:05:19.285Z,21.13
2023-11-21T20:08:05.996Z,21.80
2023-11-21T20:10:55.537Z,21.52
2023-11-21T20:13:42.116Z,23.60
2023-11-21T20:16:29.115Z,22.00
2023-11-21T20:19:15.602Z,22.70
2023-11-21T20:22:03.017Z,22.55
2023-11-21T20:24:49.156Z,22.08
2023-11-21T20:27:36.235Z,22.73
2023-11-21T20:30:23.988Z,24.02
2023-11-21T20:33:11.098Z,24.98
2023-11-21T20:35:57.490Z,23.73
2023-11-21T20:38:44.667Z,22.42
2023-11-21T20:41:31.095Z,23.42
2023-11-21T20:44:18.623Z,23.88
2023-11-21T20:47:10.784Z,23.70
2023-11-21T20:50:01.282Z,22.38
2023-11-21T20:52:47.496Z,22.10
2023-11-21T20:55:34.372Z,21.38
2023-11-21T20:58:21.360Z,21.48
2023-11-21T21:01:08.508Z,21.95
2023-11-21T21:03:55.067Z,22.00
2023-11-21T21:06:41.889Z,21.13
2023-11-21T21:09:28.349Z,21.52
2023-11-21T21:12:15.482Z,21.90
2023-11-21T21:15:01.322Z,22.70
2023-11-21T21:17:48.343Z,21.90
2023-11-21T21:20:35.411Z,22.30
2023-11-21T21:23:22.928Z,22.42
2023-11-21T21:26:10.794Z,22.45
2023-11-21T21:28:58.518Z,22.02
2023-11-21T21:31:44.574Z,21.83
2023-11-21T21:34:31.005Z,22.30
2023-11-21T21:37:17.849Z,23.02
2023-11-21T21:40:04.260Z,22.15
2023-11-21T21:42:50.415Z,22.13
2023-11-21T21:45:39.033Z,21.13
2023-11-21T21:48:25.694Z,21.00
2023-11-21T21:51:17.437Z,21.45
2023-11-21T21:54:04.085Z,20.92
2023-11-21T21:56:51.834Z,20.73
2023-11-21T21:59:39.308Z,21.33
2023-11-21T22:02:26.373Z,20.60
2023-11-21T22:05:13.709Z,20.27
2023-11-21T22:08:00.381Z,21.00
2023-11-21T22:10:46.409Z,19.50
2023-11-21T22:13:34.362Z,19.63
2023-11-21T22:16:22.336Z,19.73
2023-11-21T22:19:08.706Z,18.67
2023-11-21T22:21:55.152Z,18.92
2023-11-21T22:24:42.377Z,19.23
2023-11-21T22:27:30.091Z,19.23
2023-11-21T22:30:16.943Z,19.40
2023-11-21T22:33:03.091Z,19.38
2023-11-21T22:35:50.563Z,19.60
2023-11-21T22:38:36.695Z,18.98
2023-11-21T22:41:27.484Z,18.80
2023-11-21T22:47:03.066Z,18.60
2023-11-21T22:49:49.271Z,19.15
2023-11-21T22:52:35.740Z,19.20
2023-11-21T22:55:21.759Z,18.85
2023-11-21T22:58:08.761Z,19.63
2023-11-21T23:00:58.811Z,19.10
2023-11-21T23:03:49.845Z,20.60
2023-11-21T23:06:36.356Z,20.55
2023-11-21T23:09:23.632Z,21.05
2023-11-21T23:12:10.235Z,23.00
2023-11-21T23:14:57.380Z,24.13
2023-11-21T23:17:43.772Z,25.42
2023-11-21T23:20:32.257Z,25.05
2023-11-21T23:23:18.872Z,25.85
2023-11-21T23:26:06.648Z,26.67
2023-11-21T23:28:52.943Z,26.10
2023-11-21T23:31:39.854Z,26.42
2023-11-21T23:34:26.625Z,24.80
2023-11-21T23:37:13.598Z,24.23
2023-11-21T23:40:00.463Z,23.27
2023-11-21T23:42:47.040Z,24.02
2023-11-21T23:45:34.614Z,23.60
2023-11-21T23:48:22.121Z,24.05
2023-11-21T23:51:08.104Z,23.83
2023-11-21T23:53:55.595Z,23.33
2023-11-21T23:56:41.600Z,24.63
2023-11-21T23:59:28.996Z,25.35
